sensor_id;sensor_type;location;lat;lon;timestamp;P1;durP1;ratioP1;P2;durP2;ratioP2
62711;SDS011;48772;55.586;37.730;2023-05-07T00:00:38;6.25;;;3.03;;
62711;SDS011;48772;55.586;37.730;2023-05-07T00:03:03;5.15;;;3.10;;
62711;SDS011;48772;55.586;37.730;2023-05-07T00:05:29;6.57;;;3.42;;
62711;SDS011;48772;55.586;37.730;2023-05-07T00:07:55;4.95;;;3.40;;
62711;SDS011;48772;55.586;37.730;2023-05-07T00:10:22;6.15;;;3.17;;
62711;SDS011;48772;55.586;37.730;2023-05-07T00:12:48;7.50;;;4.93;;
62711;SDS011;48772;55.586;37.730;2023-05-07T00:15:13;5.32;;;3.47;;
62711;SDS011;48772;55.586;37.730;2023-05-07T00:17:39;6.28;;;3.63;;
62711;SDS011;48772;55.586;37.730;2023-05-07T00:20:05;5.35;;;3.58;;
62711;SDS011;48772;55.586;37.730;2023-05-07T00:22:32;7.63;;;4.00;;
62711;SDS011;48772;55.586;37.730;2023-05-07T00:24:58;5.22;;;3.20;;
62711;SDS011;48772;55.586;37.730;2023-05-07T00:27:25;4.95;;;3.90;;
62711;SDS011;48772;55.586;37.730;2023-05-07T00:29:51;8.27;;;3.72;;
62711;SDS011;48772;55.586;37.730;2023-05-07T00:32:17;7.07;;;3.35;;
62711;SDS011;48772;55.586;37.730;2023-05-07T00:34:43;6.70;;;2.83;;
62711;SDS011;48772;55.586;37.730;2023-05-07T00:37:09;4.32;;;3.00;;
62711;SDS011;48772;55.586;37.730;2023-05-07T00:39:35;5.10;;;3.15;;
62711;SDS011;48772;55.586;37.730;2023-05-07T00:42:02;5.78;;;3.47;;
62711;SDS011;48772;55.586;37.730;2023-05-07T00:44:28;6.60;;;3.00;;
62711;SDS011;48772;55.586;37.730;2023-05-07T00:46:56;4.78;;;3.70;;
62711;SDS011;48772;55.586;37.730;2023-05-07T00:49:25;3.90;;;3.17;;
62711;SDS011;48772;55.586;37.730;2023-05-07T00:52:13;5.28;;;3.38;;
62711;SDS011;48772;55.586;37.730;2023-05-07T00:54:41;16.77;;;4.07;;
62711;SDS011;48772;55.586;37.730;2023-05-07T00:57:07;5.30;;;3.25;;
62711;SDS011;48772;55.586;37.730;2023-05-07T00:59:35;8.93;;;3.25;;
62711;SDS011;48772;55.586;37.730;2023-05-07T01:02:01;5.45;;;3.58;;
62711;SDS011;48772;55.586;37.730;2023-05-07T01:04:27;8.45;;;3.55;;
62711;SDS011;48772;55.586;37.730;2023-05-07T01:06:53;4.93;;;3.33;;
62711;SDS011;48772;55.586;37.730;2023-05-07T01:09:25;13.63;;;3.53;;
62711;SDS011;48772;55.586;37.730;2023-05-07T01:11:51;5.50;;;3.65;;
62711;SDS011;48772;55.586;37.730;2023-05-07T01:14:18;8.60;;;3.65;;
62711;SDS011;48772;55.586;37.730;2023-05-07T01:16:46;3.63;;;3.17;;
62711;SDS011;48772;55.586;37.730;2023-05-07T01:19:13;6.07;;;3.38;;
62711;SDS011;48772;55.586;37.730;2023-05-07T01:21:44;5.95;;;3.80;;
62711;SDS011;48772;55.586;37.730;2023-05-07T01:24:12;5.65;;;3.65;;
62711;SDS011;48772;55.586;37.730;2023-05-07T01:26:40;7.35;;;3.47;;
62711;SDS011;48772;55.586;37.730;2023-05-07T01:29:07;6.25;;;3.72;;
62711;SDS011;48772;55.586;37.730;2023-05-07T01:31:33;4.03;;;3.22;;
62711;SDS011;48772;55.586;37.730;2023-05-07T01:34:00;5.78;;;3.80;;
62711;SDS011;48772;55.586;37.730;2023-05-07T01:36:29;13.20;;;3.88;;
62711;SDS011;48772;55.586;37.730;2023-05-07T01:38:56;5.18;;;3.47;;
62711;SDS011;48772;55.586;37.730;2023-05-07T01:41:24;6.93;;;3.72;;
62711;SDS011;48772;55.586;37.730;2023-05-07T01:43:50;6.35;;;3.80;;
62711;SDS011;48772;55.586;37.730;2023-05-07T01:46:17;5.00;;;3.35;;
62711;SDS011;48772;55.586;37.730;2023-05-07T01:48:45;6.38;;;3.72;;
62711;SDS011;48772;55.586;37.730;2023-05-07T01:51:11;5.68;;;3.67;;
62711;SDS011;48772;55.586;37.730;2023-05-07T01:53:38;6.18;;;3.47;;
62711;SDS011;48772;55.586;37.730;2023-05-07T01:56:06;7.18;;;3.88;;
62711;SDS011;48772;55.586;37.730;2023-05-07T01:58:33;7.68;;;3.47;;
62711;SDS011;48772;55.586;37.730;2023-05-07T02:00:59;9.25;;;4.20;;
62711;SDS011;48772;55.586;37.730;2023-05-07T02:03:25;14.50;;;4.55;;
62711;SDS011;48772;55.586;37.730;2023-05-07T02:05:58;7.68;;;5.05;;
62711;SDS011;48772;55.586;37.730;2023-05-07T02:08:31;7.47;;;3.83;;
62711;SDS011;48772;55.586;37.730;2023-05-07T02:10:57;10.95;;;4.25;;
62711;SDS011;48772;55.586;37.730;2023-05-07T02:13:26;9.13;;;3.75;;
62711;SDS011;48772;55.586;37.730;2023-05-07T02:15:55;5.15;;;4.15;;
62711;SDS011;48772;55.586;37.730;2023-05-07T02:18:22;7.88;;;3.90;;
62711;SDS011;48772;55.586;37.730;2023-05-07T02:20:48;6.38;;;4.05;;
62711;SDS011;48772;55.586;37.730;2023-05-07T02:23:17;7.82;;;4.28;;
62711;SDS011;48772;55.586;37.730;2023-05-07T02:25:42;8.32;;;3.83;;
62711;SDS011;48772;55.586;37.730;2023-05-07T02:28:08;10.63;;;3.65;;
62711;SDS011;48772;55.586;37.730;2023-05-07T02:30:47;7.63;;;3.80;;
62711;SDS011;48772;55.586;37.730;2023-05-07T02:33:13;6.10;;;3.15;;
62711;SDS011;48772;55.586;37.730;2023-05-07T02:35:40;8.82;;;3.70;;
62711;SDS011;48772;55.586;37.730;2023-05-07T02:38:06;5.47;;;3.60;;
62711;SDS011;48772;55.586;37.730;2023-05-07T02:40:33;5.60;;;3.65;;
62711;SDS011;48772;55.586;37.730;2023-05-07T02:42:59;4.60;;;3.55;;
62711;SDS011;48772;55.586;37.730;2023-05-07T02:45:25;6.30;;;3.65;;
62711;SDS011;48772;55.586;37.730;2023-05-07T02:47:53;5.97;;;3.53;;
62711;SDS011;48772;55.586;37.730;2023-05-07T02:50:19;4.75;;;3.63;;
62711;SDS011;48772;55.586;37.730;2023-05-07T02:52:45;8.75;;;3.92;;
62711;SDS011;48772;55.586;37.730;2023-05-07T02:55:11;5.38;;;3.35;;
62711;SDS011;48772;55.586;37.730;2023-05-07T02:57:36;11.93;;;4.07;;
62711;SDS011;48772;55.586;37.730;2023-05-07T03:00:16;10.13;;;3.67;;
62711;SDS011;48772;55.586;37.730;2023-05-07T03:03:07;5.35;;;4.00;;
62711;SDS011;48772;55.586;37.730;2023-05-07T03:05:32;11.02;;;3.33;;
62711;SDS011;48772;55.586;37.730;2023-05-07T03:07:58;5.70;;;4.20;;
62711;SDS011;48772;55.586;37.730;2023-05-07T03:10:24;6.05;;;3.80;;
62711;SDS011;48772;55.586;37.730;2023-05-07T03:12:50;5.07;;;3.33;;
62711;SDS011;48772;55.586;37.730;2023-05-07T03:15:16;6.28;;;3.70;;
62711;SDS011;48772;55.586;37.730;2023-05-07T03:17:42;9.55;;;3.72;;
62711;SDS011;48772;55.586;37.730;2023-05-07T03:20:08;5.60;;;3.50;;
62711;SDS011;48772;55.586;37.730;2023-05-07T03:22:35;7.18;;;3.88;;
62711;SDS011;48772;55.586;37.730;2023-05-07T03:25:01;15.82;;;4.22;;
62711;SDS011;48772;55.586;37.730;2023-05-07T03:27:34;7.28;;;3.92;;
62711;SDS011;48772;55.586;37.730;2023-05-07T03:30:00;4.75;;;3.25;;
62711;SDS011;48772;55.586;37.730;2023-05-07T03:32:30;5.93;;;3.55;;
62711;SDS011;48772;55.586;37.730;2023-05-07T03:34:56;5.97;;;3.50;;
62711;SDS011;48772;55.586;37.730;2023-05-07T03:37:21;6.15;;;3.60;;
62711;SDS011;48772;55.586;37.730;2023-05-07T03:39:48;7.38;;;3.80;;
62711;SDS011;48772;55.586;37.730;2023-05-07T03:42:14;6.82;;;4.18;;
62711;SDS011;48772;55.586;37.730;2023-05-07T03:44:40;6.47;;;3.55;;
62711;SDS011;48772;55.586;37.730;2023-05-07T03:47:06;8.50;;;3.95;;
62711;SDS011;48772;55.586;37.730;2023-05-07T03:49:32;5.28;;;3.72;;
62711;SDS011;48772;55.586;37.730;2023-05-07T03:51:58;9.20;;;4.10;;
62711;SDS011;48772;55.586;37.730;2023-05-07T03:54:24;7.70;;;4.32;;
62711;SDS011;48772;55.586;37.730;2023-05-07T03:56:50;7.07;;;4.53;;
62711;SDS011;48772;55.586;37.730;2023-05-07T03:59:15;6.82;;;3.53;;
62711;SDS011;48772;55.586;37.730;2023-05-07T04:01:43;5.80;;;3.60;;
62711;SDS011;48772;55.586;37.730;2023-05-07T04:04:14;6.10;;;3.95;;
62711;SDS011;48772;55.586;37.730;2023-05-07T04:06:41;6.07;;;3.70;;
62711;SDS011;48772;55.586;37.730;2023-05-07T04:09:07;6.43;;;3.88;;
62711;SDS011;48772;55.586;37.730;2023-05-07T04:11:35;4.75;;;4.00;;
62711;SDS011;48772;55.586;37.730;2023-05-07T04:14:01;5.28;;;3.60;;
62711;SDS011;48772;55.586;37.730;2023-05-07T04:16:27;7.50;;;3.78;;
62711;SDS011;48772;55.586;37.730;2023-05-07T04:18:52;3.35;;;2.38;;
62711;SDS011;48772;55.586;37.730;2023-05-07T04:21:19;4.93;;;3.22;;
62711;SDS011;48772;55.586;37.730;2023-05-07T04:23:47;9.32;;;3.88;;
62711;SDS011;48772;55.586;37.730;2023-05-07T04:26:14;5.75;;;3.38;;
62711;SDS011;48772;55.586;37.730;2023-05-07T04:28:42;4.13;;;3.22;;
62711;SDS011;48772;55.586;37.730;2023-05-07T04:31:08;6.40;;;3.47;;
62711;SDS011;48772;55.586;37.730;2023-05-07T04:33:36;4.03;;;2.92;;
62711;SDS011;48772;55.586;37.730;2023-05-07T04:36:03;4.88;;;2.65;;
62711;SDS011;48772;55.586;37.730;2023-05-07T04:38:33;4.85;;;3.28;;
62711;SDS011;48772;55.586;37.730;2023-05-07T04:41:04;5.45;;;3.05;;
62711;SDS011;48772;55.586;37.730;2023-05-07T04:43:34;5.70;;;3.00;;
62711;SDS011;48772;55.586;37.730;2023-05-07T04:46:00;6.25;;;3.38;;
62711;SDS011;48772;55.586;37.730;2023-05-07T04:48:27;4.25;;;2.72;;
62711;SDS011;48772;55.586;37.730;2023-05-07T04:50:54;10.63;;;2.63;;
62711;SDS011;48772;55.586;37.730;2023-05-07T04:53:21;5.35;;;2.65;;
62711;SDS011;48772;55.586;37.730;2023-05-07T04:55:49;4.00;;;2.95;;
62711;SDS011;48772;55.586;37.730;2023-05-07T04:58:20;5.95;;;2.42;;
62711;SDS011;48772;55.586;37.730;2023-05-07T05:00:46;4.57;;;2.60;;
62711;SDS011;48772;55.586;37.730;2023-05-07T05:03:12;3.63;;;2.20;;
62711;SDS011;48772;55.586;37.730;2023-05-07T05:05:38;2.90;;;2.47;;
62711;SDS011;48772;55.586;37.730;2023-05-07T05:08:05;3.25;;;2.63;;
62711;SDS011;48772;55.586;37.730;2023-05-07T05:10:32;3.55;;;3.25;;
62711;SDS011;48772;55.586;37.730;2023-05-07T05:12:58;4.18;;;3.08;;
62711;SDS011;48772;55.586;37.730;2023-05-07T05:15:24;5.68;;;2.75;;
62711;SDS011;48772;55.586;37.730;2023-05-07T05:18:27;3.58;;;2.30;;
62711;SDS011;48772;55.586;37.730;2023-05-07T05:20:52;3.45;;;2.45;;
62711;SDS011;48772;55.586;37.730;2023-05-07T05:23:18;3.55;;;2.20;;
62711;SDS011;48772;55.586;37.730;2023-05-07T05:25:45;3.55;;;2.45;;
62711;SDS011;48772;55.586;37.730;2023-05-07T05:28:13;3.13;;;1.77;;
62711;SDS011;48772;55.586;37.730;2023-05-07T05:33:26;2.97;;;1.85;;
62711;SDS011;48772;55.586;37.730;2023-05-07T05:35:53;3.25;;;2.10;;
62711;SDS011;48772;55.586;37.730;2023-05-07T05:38:19;6.20;;;2.03;;
62711;SDS011;48772;55.586;37.730;2023-05-07T05:40:46;3.50;;;2.25;;
62711;SDS011;48772;55.586;37.730;2023-05-07T05:43:13;8.45;;;6.40;;
62711;SDS011;48772;55.586;37.730;2023-05-07T05:45:40;2.20;;;1.88;;
62711;SDS011;48772;55.586;37.730;2023-05-07T05:48:06;2.65;;;1.83;;
62711;SDS011;48772;55.586;37.730;2023-05-07T05:50:32;4.03;;;2.20;;
62711;SDS011;48772;55.586;37.730;2023-05-07T05:52:58;3.60;;;2.13;;
62711;SDS011;48772;55.586;37.730;2023-05-07T05:55:26;3.85;;;2.00;;
62711;SDS011;48772;55.586;37.730;2023-05-07T05:57:52;1.90;;;1.70;;
62711;SDS011;48772;55.586;37.730;2023-05-07T06:03:05;2.55;;;1.80;;
62711;SDS011;48772;55.586;37.730;2023-05-07T06:05:31;4.78;;;2.38;;
62711;SDS011;48772;55.586;37.730;2023-05-07T06:07:57;3.05;;;2.08;;
62711;SDS011;48772;55.586;37.730;2023-05-07T06:10:24;3.05;;;1.75;;
62711;SDS011;48772;55.586;37.730;2023-05-07T06:12:51;3.22;;;2.20;;
62711;SDS011;48772;55.586;37.730;2023-05-07T06:15:17;3.33;;;1.80;;
62711;SDS011;48772;55.586;37.730;2023-05-07T06:17:44;5.18;;;2.00;;
62711;SDS011;48772;55.586;37.730;2023-05-07T06:20:10;4.00;;;2.03;;
62711;SDS011;48772;55.586;37.730;2023-05-07T06:22:37;3.58;;;1.80;;
62711;SDS011;48772;55.586;37.730;2023-05-07T06:25:04;1.92;;;1.75;;
62711;SDS011;48772;55.586;37.730;2023-05-07T06:27:31;4.65;;;1.80;;
62711;SDS011;48772;55.586;37.730;2023-05-07T06:29:57;4.82;;;2.08;;
62711;SDS011;48772;55.586;37.730;2023-05-07T06:32:23;2.08;;;1.80;;
62711;SDS011;48772;55.586;37.730;2023-05-07T06:34:50;2.60;;;1.85;;
62711;SDS011;48772;55.586;37.730;2023-05-07T06:37:16;12.70;;;3.33;;
62711;SDS011;48772;55.586;37.730;2023-05-07T06:39:52;6.20;;;1.92;;
62711;SDS011;48772;55.586;37.730;2023-05-07T06:42:18;3.78;;;1.98;;
62711;SDS011;48772;55.586;37.730;2023-05-07T06:44:47;5.85;;;2.10;;
62711;SDS011;48772;55.586;37.730;2023-05-07T06:47:15;5.32;;;1.85;;
62711;SDS011;48772;55.586;37.730;2023-05-07T06:49:41;2.00;;;1.60;;
62711;SDS011;48772;55.586;37.730;2023-05-07T06:52:07;3.70;;;1.70;;
62711;SDS011;48772;55.586;37.730;2023-05-07T06:54:33;6.65;;;1.80;;
62711;SDS011;48772;55.586;37.730;2023-05-07T06:56:59;7.03;;;2.00;;
62711;SDS011;48772;55.586;37.730;2023-05-07T06:59:27;1.67;;;1.58;;
62711;SDS011;48772;55.586;37.730;2023-05-07T07:01:54;3.47;;;1.50;;
62711;SDS011;48772;55.586;37.730;2023-05-07T07:04:21;3.58;;;1.65;;
62711;SDS011;48772;55.586;37.730;2023-05-07T07:06:54;5.15;;;2.25;;
62711;SDS011;48772;55.586;37.730;2023-05-07T07:09:22;4.88;;;1.92;;
62711;SDS011;48772;55.586;37.730;2023-05-07T07:11:48;1.60;;;1.50;;
62711;SDS011;48772;55.586;37.730;2023-05-07T07:14:14;3.63;;;1.70;;
62711;SDS011;48772;55.586;37.730;2023-05-07T07:16:45;3.55;;;1.70;;
62711;SDS011;48772;55.586;37.730;2023-05-07T07:19:17;1.58;;;1.48;;
62711;SDS011;48772;55.586;37.730;2023-05-07T07:21:44;2.03;;;1.77;;
62711;SDS011;48772;55.586;37.730;2023-05-07T07:24:12;4.03;;;1.92;;
62711;SDS011;48772;55.586;37.730;2023-05-07T07:26:39;1.92;;;1.73;;
62711;SDS011;48772;55.586;37.730;2023-05-07T07:29:05;5.30;;;1.70;;
62711;SDS011;48772;55.586;37.730;2023-05-07T07:31:32;2.72;;;1.63;;
62711;SDS011;48772;55.586;37.730;2023-05-07T07:33:58;3.15;;;1.67;;
62711;SDS011;48772;55.586;37.730;2023-05-07T07:36:24;2.92;;;1.67;;
62711;SDS011;48772;55.586;37.730;2023-05-07T07:38:52;11.10;;;5.13;;
62711;SDS011;48772;55.586;37.730;2023-05-07T07:41:19;3.72;;;1.80;;
62711;SDS011;48772;55.586;37.730;2023-05-07T07:43:45;5.72;;;1.50;;
62711;SDS011;48772;55.586;37.730;2023-05-07T07:46:12;8.90;;;2.97;;
62711;SDS011;48772;55.586;37.730;2023-05-07T07:48:39;3.83;;;1.60;;
62711;SDS011;48772;55.586;37.730;2023-05-07T07:51:06;4.43;;;1.65;;
62711;SDS011;48772;55.586;37.730;2023-05-07T07:53:32;5.68;;;1.63;;
62711;SDS011;48772;55.586;37.730;2023-05-07T07:55:59;4.75;;;1.90;;
62711;SDS011;48772;55.586;37.730;2023-05-07T07:58:29;2.47;;;1.75;;
62711;SDS011;48772;55.586;37.730;2023-05-07T08:00:55;6.78;;;1.73;;
62711;SDS011;48772;55.586;37.730;2023-05-07T08:03:22;2.58;;;1.52;;
62711;SDS011;48772;55.586;37.730;2023-05-07T08:05:52;2.47;;;1.60;;
62711;SDS011;48772;55.586;37.730;2023-05-07T08:08:18;2.75;;;1.65;;
62711;SDS011;48772;55.586;37.730;2023-05-07T08:10:45;2.78;;;2.00;;
62711;SDS011;48772;55.586;37.730;2023-05-07T08:13:18;4.13;;;1.98;;
62711;SDS011;48772;55.586;37.730;2023-05-07T08:15:44;2.35;;;1.70;;
62711;SDS011;48772;55.586;37.730;2023-05-07T08:18:12;2.25;;;1.85;;
62711;SDS011;48772;55.586;37.730;2023-05-07T08:20:38;1.40;;;1.30;;
62711;SDS011;48772;55.586;37.730;2023-05-07T08:23:07;2.20;;;1.30;;
62711;SDS011;48772;55.586;37.730;2023-05-07T08:25:33;4.03;;;1.58;;
62711;SDS011;48772;55.586;37.730;2023-05-07T08:28:04;4.00;;;1.42;;
62711;SDS011;48772;55.586;37.730;2023-05-07T08:30:30;5.82;;;3.33;;
62711;SDS011;48772;55.586;37.730;2023-05-07T08:32:56;2.47;;;1.75;;
62711;SDS011;48772;55.586;37.730;2023-05-07T08:35:22;3.55;;;1.70;;
62711;SDS011;48772;55.586;37.730;2023-05-07T08:37:48;2.15;;;1.48;;
62711;SDS011;48772;55.586;37.730;2023-05-07T08:40:16;3.20;;;2.28;;
62711;SDS011;48772;55.586;37.730;2023-05-07T08:42:42;5.97;;;2.05;;
62711;SDS011;48772;55.586;37.730;2023-05-07T08:45:10;2.05;;;1.85;;
62711;SDS011;48772;55.586;37.730;2023-05-07T08:47:40;4.25;;;1.67;;
62711;SDS011;48772;55.586;37.730;2023-05-07T08:50:12;7.38;;;1.48;;
62711;SDS011;48772;55.586;37.730;2023-05-07T08:52:39;2.03;;;1.50;;
62711;SDS011;48772;55.586;37.730;2023-05-07T08:55:07;2.38;;;1.80;;
62711;SDS011;48772;55.586;37.730;2023-05-07T08:57:34;3.65;;;1.50;;
62711;SDS011;48772;55.586;37.730;2023-05-07T09:00:02;2.28;;;1.70;;
62711;SDS011;48772;55.586;37.730;2023-05-07T09:02:31;1.60;;;1.40;;
62711;SDS011;48772;55.586;37.730;2023-05-07T09:04:57;3.80;;;1.33;;
62711;SDS011;48772;55.586;37.730;2023-05-07T09:07:23;3.58;;;1.50;;
62711;SDS011;48772;55.586;37.730;2023-05-07T09:09:50;1.63;;;1.35;;
62711;SDS011;48772;55.586;37.730;2023-05-07T09:12:17;2.30;;;1.48;;
62711;SDS011;48772;55.586;37.730;2023-05-07T09:14:44;2.25;;;1.60;;
62711;SDS011;48772;55.586;37.730;2023-05-07T09:17:11;3.05;;;1.35;;
62711;SDS011;48772;55.586;37.730;2023-05-07T09:19:43;2.70;;;1.45;;
62711;SDS011;48772;55.586;37.730;2023-05-07T09:22:11;4.55;;;1.75;;
62711;SDS011;48772;55.586;37.730;2023-05-07T09:24:49;4.68;;;1.60;;
62711;SDS011;48772;55.586;37.730;2023-05-07T09:27:17;3.40;;;1.52;;
62711;SDS011;48772;55.586;37.730;2023-05-07T09:29:44;8.13;;;1.50;;
62711;SDS011;48772;55.586;37.730;2023-05-07T09:32:12;2.92;;;1.70;;
62711;SDS011;48772;55.586;37.730;2023-05-07T09:34:51;4.32;;;1.75;;
62711;SDS011;48772;55.586;37.730;2023-05-07T09:37:21;6.00;;;1.70;;
62711;SDS011;48772;55.586;37.730;2023-05-07T09:39:48;5.65;;;1.48;;
62711;SDS011;48772;55.586;37.730;2023-05-07T09:42:22;2.42;;;1.70;;
62711;SDS011;48772;55.586;37.730;2023-05-07T09:44:58;2.28;;;1.50;;
62711;SDS011;48772;55.586;37.730;2023-05-07T09:47:30;2.65;;;1.50;;
62711;SDS011;48772;55.586;37.730;2023-05-07T09:49:58;3.80;;;1.67;;
62711;SDS011;48772;55.586;37.730;2023-05-07T09:52:30;3.05;;;1.25;;
62711;SDS011;48772;55.586;37.730;2023-05-07T09:55:00;2.85;;;1.40;;
62711;SDS011;48772;55.586;37.730;2023-05-07T09:57:32;2.70;;;1.38;;
62711;SDS011;48772;55.586;37.730;2023-05-07T10:00:04;4.20;;;1.38;;
62711;SDS011;48772;55.586;37.730;2023-05-07T10:02:47;2.85;;;1.40;;
62711;SDS011;48772;55.586;37.730;2023-05-07T10:05:18;2.88;;;1.20;;
62711;SDS011;48772;55.586;37.730;2023-05-07T10:07:46;1.63;;;1.38;;
62711;SDS011;48772;55.586;37.730;2023-05-07T10:10:14;3.63;;;1.50;;
62711;SDS011;48772;55.586;37.730;2023-05-07T10:12:44;4.30;;;1.30;;
62711;SDS011;48772;55.586;37.730;2023-05-07T10:15:20;5.55;;;1.38;;
62711;SDS011;48772;55.586;37.730;2023-05-07T10:17:50;3.47;;;1.50;;
62711;SDS011;48772;55.586;37.730;2023-05-07T10:20:18;2.03;;;1.52;;
62711;SDS011;48772;55.586;37.730;2023-05-07T10:22:47;4.93;;;1.50;;
62711;SDS011;48772;55.586;37.730;2023-05-07T10:25:21;3.60;;;1.50;;
62711;SDS011;48772;55.586;37.730;2023-05-07T10:27:51;4.15;;;1.40;;
62711;SDS011;48772;55.586;37.730;2023-05-07T10:33:10;3.78;;;1.60;;
62711;SDS011;48772;55.586;37.730;2023-05-07T10:35:43;1.63;;;1.40;;
62711;SDS011;48772;55.586;37.730;2023-05-07T10:38:11;4.40;;;1.75;;
62711;SDS011;48772;55.586;37.730;2023-05-07T10:40:39;4.18;;;1.45;;
62711;SDS011;48772;55.586;37.730;2023-05-07T10:43:07;3.10;;;1.60;;
62711;SDS011;48772;55.586;37.730;2023-05-07T10:51:39;3.25;;;1.55;;
62711;SDS011;48772;55.586;37.730;2023-05-07T10:54:25;2.75;;;1.63;;
62711;SDS011;48772;55.586;37.730;2023-05-07T10:57:12;1.67;;;1.40;;
62711;SDS011;48772;55.586;37.730;2023-05-07T11:05:47;3.83;;;1.42;;
62711;SDS011;48772;55.586;37.730;2023-05-07T11:08:30;1.73;;;1.30;;
62711;SDS011;48772;55.586;37.730;2023-05-07T11:11:14;2.03;;;1.40;;
62711;SDS011;48772;55.586;37.730;2023-05-07T11:13:49;2.72;;;1.65;;
62711;SDS011;48772;55.586;37.730;2023-05-07T11:16:26;3.60;;;1.67;;
62711;SDS011;48772;55.586;37.730;2023-05-07T11:19:03;2.40;;;1.52;;
62711;SDS011;48772;55.586;37.730;2023-05-07T11:21:36;2.08;;;1.52;;
62711;SDS011;48772;55.586;37.730;2023-05-07T11:24:19;2.75;;;1.20;;
62711;SDS011;48772;55.586;37.730;2023-05-07T11:26:59;3.20;;;1.55;;
62711;SDS011;48772;55.586;37.730;2023-05-07T11:29:27;5.97;;;1.80;;
62711;SDS011;48772;55.586;37.730;2023-05-07T11:32:14;2.00;;;1.48;;
62711;SDS011;48772;55.586;37.730;2023-05-07T11:34:47;3.45;;;1.33;;
62711;SDS011;48772;55.586;37.730;2023-05-07T11:37:17;2.85;;;1.50;;
62711;SDS011;48772;55.586;37.730;2023-05-07T11:39:49;4.20;;;1.40;;
62711;SDS011;48772;55.586;37.730;2023-05-07T11:44:53;3.38;;;1.50;;
62711;SDS011;48772;55.586;37.730;2023-05-07T11:47:20;2.83;;;1.38;;
62711;SDS011;48772;55.586;37.730;2023-05-07T11:49:47;2.58;;;1.10;;
62711;SDS011;48772;55.586;37.730;2023-05-07T11:52:14;4.78;;;1.40;;
62711;SDS011;48772;55.586;37.730;2023-05-07T11:54:40;5.45;;;1.73;;
62711;SDS011;48772;55.586;37.730;2023-05-07T11:57:05;1.75;;;1.45;;
62711;SDS011;48772;55.586;37.730;2023-05-07T11:59:41;2.38;;;1.40;;
62711;SDS011;48772;55.586;37.730;2023-05-07T12:02:10;9.23;;;2.03;;
62711;SDS011;48772;55.586;37.730;2023-05-07T12:04:40;3.47;;;1.55;;
62711;SDS011;48772;55.586;37.730;2023-05-07T12:07:12;6.57;;;2.00;;
62711;SDS011;48772;55.586;37.730;2023-05-07T12:09:39;4.22;;;2.00;;
62711;SDS011;48772;55.586;37.730;2023-05-07T12:12:06;4.65;;;1.73;;
62711;SDS011;48772;55.586;37.730;2023-05-07T12:14:32;1.42;;;1.33;;
62711;SDS011;48772;55.586;37.730;2023-05-07T12:17:01;3.10;;;1.95;;
62711;SDS011;48772;55.586;37.730;2023-05-07T12:19:28;2.70;;;1.50;;
62711;SDS011;48772;55.586;37.730;2023-05-07T12:21:55;4.07;;;1.30;;
62711;SDS011;48772;55.586;37.730;2023-05-07T12:24:23;2.25;;;1.65;;
62711;SDS011;48772;55.586;37.730;2023-05-07T12:26:49;2.15;;;1.67;;
62711;SDS011;48772;55.586;37.730;2023-05-07T12:29:16;1.55;;;1.45;;
62711;SDS011;48772;55.586;37.730;2023-05-07T12:31:42;5.15;;;1.85;;
62711;SDS011;48772;55.586;37.730;2023-05-07T12:34:10;3.78;;;1.67;;
62711;SDS011;48772;55.586;37.730;2023-05-07T12:36:37;6.82;;;2.00;;
62711;SDS011;48772;55.586;37.730;2023-05-07T12:39:08;3.08;;;1.70;;
62711;SDS011;48772;55.586;37.730;2023-05-07T12:41:36;2.50;;;1.95;;
62711;SDS011;48772;55.586;37.730;2023-05-07T12:44:18;4.68;;;2.00;;
62711;SDS011;48772;55.586;37.730;2023-05-07T12:46:45;4.00;;;1.70;;
62711;SDS011;48772;55.586;37.730;2023-05-07T12:49:12;3.58;;;1.50;;
62711;SDS011;48772;55.586;37.730;2023-05-07T12:51:38;2.25;;;1.52;;
62711;SDS011;48772;55.586;37.730;2023-05-07T12:54:04;2.95;;;1.52;;
62711;SDS011;48772;55.586;37.730;2023-05-07T12:56:35;4.10;;;1.58;;
62711;SDS011;48772;55.586;37.730;2023-05-07T12:59:01;2.90;;;1.60;;
62711;SDS011;48772;55.586;37.730;2023-05-07T13:01:31;2.58;;;1.80;;
62711;SDS011;48772;55.586;37.730;2023-05-07T13:04:03;3.83;;;1.90;;
62711;SDS011;48772;55.586;37.730;2023-05-07T13:06:29;2.28;;;1.52;;
62711;SDS011;48772;55.586;37.730;2023-05-07T13:08:56;3.42;;;1.67;;
62711;SDS011;48772;55.586;37.730;2023-05-07T13:11:22;4.60;;;1.40;;
62711;SDS011;48772;55.586;37.730;2023-05-07T13:13:48;2.40;;;1.60;;
62711;SDS011;48772;55.586;37.730;2023-05-07T13:16:14;3.55;;;1.70;;
62711;SDS011;48772;55.586;37.730;2023-05-07T13:18:40;2.72;;;1.63;;
62711;SDS011;48772;55.586;37.730;2023-05-07T13:21:06;7.10;;;1.60;;
62711;SDS011;48772;55.586;37.730;2023-05-07T13:23:32;1.75;;;1.65;;
62711;SDS011;48772;55.586;37.730;2023-05-07T13:25:57;3.42;;;1.55;;
62711;SDS011;48772;55.586;37.730;2023-05-07T13:28:24;2.63;;;1.60;;
62711;SDS011;48772;55.586;37.730;2023-05-07T13:30:50;2.10;;;1.60;;
62711;SDS011;48772;55.586;37.730;2023-05-07T13:33:17;3.25;;;1.45;;
62711;SDS011;48772;55.586;37.730;2023-05-07T13:35:43;3.78;;;1.60;;
62711;SDS011;48772;55.586;37.730;2023-05-07T13:38:10;3.63;;;1.83;;
62711;SDS011;48772;55.586;37.730;2023-05-07T13:40:36;2.95;;;1.13;;
62711;SDS011;48772;55.586;37.730;2023-05-07T13:43:01;2.35;;;1.40;;
62711;SDS011;48772;55.586;37.730;2023-05-07T13:45:28;3.38;;;1.48;;
62711;SDS011;48772;55.586;37.730;2023-05-07T13:47:55;2.08;;;1.65;;
62711;SDS011;48772;55.586;37.730;2023-05-07T13:50:21;3.58;;;1.50;;
62711;SDS011;48772;55.586;37.730;2023-05-07T13:52:47;1.70;;;1.40;;
62711;SDS011;48772;55.586;37.730;2023-05-07T13:55:20;3.63;;;1.55;;
62711;SDS011;48772;55.586;37.730;2023-05-07T13:57:47;3.83;;;1.52;;
62711;SDS011;48772;55.586;37.730;2023-05-07T14:00:13;2.92;;;1.30;;
62711;SDS011;48772;55.586;37.730;2023-05-07T14:02:42;3.85;;;1.63;;
62711;SDS011;48772;55.586;37.730;2023-05-07T14:05:08;4.65;;;1.63;;
62711;SDS011;48772;55.586;37.730;2023-05-07T14:07:35;2.30;;;1.50;;
62711;SDS011;48772;55.586;37.730;2023-05-07T14:10:01;3.90;;;1.48;;
62711;SDS011;48772;55.586;37.730;2023-05-07T14:12:31;8.07;;;1.52;;
62711;SDS011;48772;55.586;37.730;2023-05-07T14:14:58;4.15;;;1.70;;
62711;SDS011;48772;55.586;37.730;2023-05-07T14:17:23;3.88;;;1.45;;
62711;SDS011;48772;55.586;37.730;2023-05-07T14:19:53;6.15;;;1.80;;
62711;SDS011;48772;55.586;37.730;2023-05-07T14:22:20;5.47;;;1.65;;
62711;SDS011;48772;55.586;37.730;2023-05-07T14:24:47;4.95;;;1.58;;
62711;SDS011;48772;55.586;37.730;2023-05-07T14:27:14;2.45;;;1.75;;
62711;SDS011;48772;55.586;37.730;2023-05-07T14:29:40;4.00;;;1.38;;
62711;SDS011;48772;55.586;37.730;2023-05-07T14:32:08;1.45;;;1.35;;
62711;SDS011;48772;55.586;37.730;2023-05-07T14:34:33;2.47;;;1.50;;
62711;SDS011;48772;55.586;37.730;2023-05-07T14:36:59;4.22;;;1.77;;
62711;SDS011;48772;55.586;37.730;2023-05-07T14:39:27;3.75;;;1.45;;
62711;SDS011;48772;55.586;37.730;2023-05-07T14:41:53;1.52;;;1.40;;
62711;SDS011;48772;55.586;37.730;2023-05-07T14:44:20;2.25;;;1.48;;
62711;SDS011;48772;55.586;37.730;2023-05-07T14:46:46;1.63;;;1.30;;
62711;SDS011;48772;55.586;37.730;2023-05-07T14:49:13;1.75;;;1.33;;
62711;SDS011;48772;55.586;37.730;2023-05-07T14:51:44;2.90;;;1.40;;
62711;SDS011;48772;55.586;37.730;2023-05-07T14:54:11;4.10;;;1.45;;
62711;SDS011;48772;55.586;37.730;2023-05-07T14:56:37;5.05;;;2.20;;
62711;SDS011;48772;55.586;37.730;2023-05-07T14:59:03;5.40;;;1.40;;
62711;SDS011;48772;55.586;37.730;2023-05-07T15:01:29;6.50;;;1.67;;